createdAt,value
2016-10-05T00:02:41.415Z,92.89
2016-10-05T00:04:09.880Z,93.18
2016-10-05T00:05:05.924Z,93.18
2016-10-05T00:06:25.124Z,92.99
2016-10-05T00:08:12.264Z,92.41
2016-10-05T00:15:21.965Z,92.7
2016-10-05T00:17:22.141Z,92.22
2016-10-05T00:29:45.239Z,90.89
2016-10-05T00:30:53.429Z,90.8
2016-10-05T00:40:20.108Z,90.28
2016-10-05T00:47:15.445Z,89.61
2016-10-05T00:53:59.134Z,90.61
2016-10-05T00:55:49.021Z,90.23
2016-10-05T00:56:29.551Z,90.52
2016-10-05T00:57:10.075Z,90.52
2016-10-05T00:57:50.595Z,90.23
2016-10-05T00:58:31.118Z,90.33
2016-10-05T00:59:11.637Z,90.7
2016-10-05T00:59:52.135Z,90.99
2016-10-05T01:00:32.649Z,90.99
2016-10-05T01:01:13.180Z,90.8
2016-10-05T01:01:53.668Z,90.52
2016-10-05T01:02:34.173Z,91.18
2016-10-05T01:03:16.168Z,91.28
2016-10-05T01:03:56.719Z,91.28
2016-10-05T01:04:37.259Z,90.61
2016-10-05T01:05:17.797Z,90.61
2016-10-05T01:05:58.340Z,90.61
2016-10-05T01:06:38.857Z,90.61
2016-10-05T01:07:19.388Z,90.61
2016-10-05T01:07:59.926Z,90.61
2016-10-05T01:08:40.470Z,90.61
2016-10-05T01:09:20.983Z,91.28
2016-10-05T01:10:01.512Z,90.8
2016-10-05T01:10:42.029Z,91.08
2016-10-05T01:11:22.560Z,90.89
2016-10-05T01:12:03.088Z,90.89
2016-10-05T01:12:43.607Z,90.89
2016-10-05T01:13:24.129Z,91.08
2016-10-05T01:14:04.683Z,91.28
2016-10-05T01:14:45.184Z,90.99
2016-10-05T01:15:25.687Z,90.99
2016-10-05T01:16:06.197Z,90.99
2016-10-05T01:16:46.733Z,91.18
2016-10-05T01:17:27.232Z,91.08
2016-10-05T01:18:07.733Z,90.7
2016-10-05T01:18:48.287Z,91.47
2016-10-05T01:19:28.816Z,91.33
2016-10-05T01:20:09.315Z,91.89
2016-10-05T01:20:49.813Z,91.8
2016-10-05T01:21:30.361Z,91.71
2016-10-05T01:22:10.877Z,91.75
2016-10-05T01:22:51.409Z,91.37
2016-10-05T01:23:31.937Z,91.52
2016-10-05T01:24:12.484Z,91.52
2016-10-05T01:24:53.021Z,91.52
2016-10-05T01:25:33.548Z,91.28
2016-10-05T01:26:14.101Z,91.71
2016-10-05T01:26:54.639Z,91.71
2016-10-05T01:27:35.155Z,91.99
2016-10-05T01:28:15.732Z,92.18
2016-10-05T01:28:56.200Z,92.27
2016-10-05T01:29:36.746Z,91.89
2016-10-05T01:30:17.271Z,91.99
2016-10-05T01:30:57.782Z,91.71
2016-10-05T01:31:38.298Z,92.08
2016-10-05T01:32:18.863Z,92.18
2016-10-05T01:32:59.397Z,92.27
2016-10-05T01:33:39.920Z,92.18
2016-10-05T01:34:20.448Z,92.08
2016-10-05T01:35:00.941Z,92.56
2016-10-05T01:35:41.458Z,92.37
2016-10-05T01:36:21.993Z,92.27
2016-10-05T01:37:02.526Z,92.75
2016-10-05T01:37:43.085Z,92.75
2016-10-05T01:38:23.596Z,92.46
2016-10-05T01:39:04.123Z,92.56
2016-10-05T01:39:44.639Z,93.13
2016-10-05T01:40:25.173Z,93.13
2016-10-05T01:41:05.692Z,92.94
2016-10-05T01:41:46.222Z,93.13
2016-10-05T01:42:26.728Z,93.41
2016-10-05T01:43:07.243Z,93.51
2016-10-05T01:43:47.778Z,93.13
2016-10-05T01:44:28.289Z,93.23
2016-10-05T01:45:08.822Z,93.41
2016-10-05T01:45:49.334Z,93.32
2016-10-05T01:46:29.858Z,93.41
2016-10-05T01:47:10.347Z,93.7
2016-10-05T01:47:50.874Z,93.41
2016-10-05T01:48:31.400Z,93.7
2016-10-05T01:49:11.947Z,93.99
2016-10-05T01:49:52.490Z,93.89
2016-10-05T01:50:33.000Z,93.7
2016-10-05T01:51:13.530Z,93.7
2016-10-05T01:51:54.042Z,93.51
2016-10-05T01:52:34.569Z,93.7
2016-10-05T01:53:15.106Z,93.79
2016-10-05T01:53:55.626Z,93.7
2016-10-05T01:54:36.170Z,93.79
2016-10-05T01:55:16.734Z,93.7
2016-10-05T01:55:57.249Z,93.41
2016-10-05T01:56:37.805Z,94.37
2016-10-05T01:57:18.327Z,94.46
2016-10-05T01:57:58.863Z,94.65
2016-10-05T01:58:39.384Z,94.27
2016-10-05T01:59:19.904Z,94.27
2016-10-05T02:00:00.448Z,94.27
2016-10-05T02:00:40.988Z,94.27
2016-10-05T02:01:21.515Z,94.08
2016-10-05T02:02:02.048Z,94.18
2016-10-05T02:02:42.575Z,94.37
2016-10-05T02:03:23.114Z,94.56
2016-10-05T02:04:03.621Z,94.65
2016-10-05T02:04:44.121Z,94.27
2016-10-05T02:05:24.649Z,94.37
2016-10-05T02:06:05.178Z,94.37
2016-10-05T02:06:45.728Z,94.27
2016-10-05T02:07:26.257Z,94.56
2016-10-05T02:08:06.747Z,94.46
2016-10-05T02:08:47.262Z,94.27
2016-10-05T02:09:27.758Z,94.37
2016-10-05T02:10:08.306Z,94.37
2016-10-05T02:10:48.776Z,94.51
2016-10-05T02:11:29.299Z,94.37
2016-10-05T02:12:09.819Z,94.56
2016-10-05T02:12:50.313Z,94.37
2016-10-05T02:13:30.851Z,94.18
2016-10-05T02:14:11.400Z,94.08
2016-10-05T02:14:51.884Z,94.74
2016-10-05T02:15:32.382Z,94.56
2016-10-05T02:16:12.900Z,94.65
2016-10-05T02:16:53.436Z,94.65
2016-10-05T02:17:33.927Z,94.65
2016-10-05T02:18:14.470Z,94.37
2016-10-05T02:18:55.008Z,94.65
2016-10-05T02:19:35.543Z,94.56
2016-10-05T02:20:16.056Z,95.03
2016-10-05T02:20:56.583Z,95.03
2016-10-05T02:21:37.143Z,95.12
2016-10-05T02:22:17.657Z,95.03
2016-10-05T02:22:58.224Z,94.93
2016-10-05T02:23:38.772Z,94.84
2016-10-05T02:24:19.289Z,94.74
2016-10-05T02:24:59.811Z,95.03
2016-10-05T02:25:40.352Z,94.93
2016-10-05T02:26:20.916Z,94.74
2016-10-05T02:27:01.435Z,94.74
2016-10-05T02:27:42.005Z,94.74
2016-10-05T02:28:22.560Z,94.74
2016-10-05T02:29:03.101Z,94.74
2016-10-05T02:29:43.612Z,94.93
2016-10-05T02:30:24.134Z,94.93
2016-10-05T02:31:04.697Z,94.74
2016-10-05T02:31:45.238Z,94.74
2016-10-05T02:32:25.769Z,95.03
2016-10-05T02:33:06.291Z,95.12
2016-10-05T02:33:46.825Z,94.84
2016-10-05T02:34:27.349Z,94.56
2016-10-05T02:35:07.850Z,94.37
2016-10-05T02:35:48.379Z,95.12
2016-10-05T02:36:28.928Z,95.03
2016-10-05T02:37:09.450Z,95.12
2016-10-05T02:37:49.975Z,95.03
2016-10-05T02:38:30.504Z,95.03
2016-10-05T02:39:11.054Z,95.12
2016-10-05T02:39:51.586Z,95.12
2016-10-05T02:40:32.124Z,94.65
2016-10-05T02:41:12.645Z,94.74
2016-10-05T02:41:53.160Z,94.79
2016-10-05T02:42:33.678Z,94.37
2016-10-05T02:43:14.197Z,95.32
2016-10-05T02:43:54.713Z,94.51
2016-10-05T02:44:35.220Z,94.51
2016-10-05T02:45:15.724Z,94.79
2016-10-05T02:45:56.249Z,94.79
2016-10-05T02:46:36.756Z,94.6
2016-10-05T02:47:17.268Z,94.98
2016-10-05T02:47:57.767Z,95.36
2016-10-05T02:48:38.294Z,94.98
2016-10-05T02:49:18.817Z,95.17
2016-10-05T02:49:59.313Z,95.36
2016-10-05T02:50:39.851Z,95.46
2016-10-05T02:51:20.372Z,95.36
2016-10-05T02:52:00.876Z,94.42
2016-10-05T02:52:41.399Z,95.27
2016-10-05T02:53:21.916Z,94.98
2016-10-05T02:54:02.373Z,94.98
2016-10-05T02:54:42.900Z,94.84
2016-10-05T02:55:23.424Z,94.84
2016-10-05T02:56:03.922Z,94.56
2016-10-05T02:56:44.505Z,94.84
2016-10-05T02:57:25.003Z,95.41
2016-10-05T02:58:05.536Z,94.6
2016-10-05T02:58:46.078Z,94.6
2016-10-05T02:59:26.604Z,94.6
2016-10-05T03:00:07.113Z,94.42
2016-10-05T03:00:47.640Z,94.7
2016-10-05T03:01:28.175Z,94.98
2016-10-05T03:02:08.705Z,94.89
2016-10-05T03:02:49.223Z,94.79
2016-10-05T03:03:29.770Z,95.46
2016-10-05T03:04:10.292Z,95.27
2016-10-05T03:04:50.857Z,95.46
2016-10-05T03:05:31.381Z,94.98
2016-10-05T03:06:11.928Z,95.17
2016-10-05T03:06:52.428Z,95.17
2016-10-05T03:07:32.939Z,95.17
2016-10-05T03:08:13.478Z,95.08
2016-10-05T03:08:53.961Z,94.89
2016-10-05T03:09:34.457Z,94.98
2016-10-05T03:10:14.968Z,95.36
2016-10-05T03:10:55.486Z,94.98
2016-10-05T03:11:36.020Z,94.98
2016-10-05T03:12:16.512Z,95.08
2016-10-05T03:12:56.997Z,94.98
2016-10-05T03:13:37.490Z,94.98
2016-10-05T03:14:17.998Z,95.65
2016-10-05T03:14:58.511Z,95.84
2016-10-05T03:15:39.007Z,95.65
2016-10-05T03:16:19.512Z,95.55
2016-10-05T03:17:00.026Z,95.46
2016-10-05T03:17:40.567Z,95.46
2016-10-05T03:18:21.073Z,95.46
2016-10-05T03:19:01.569Z,95.55
2016-10-05T03:19:42.121Z,95.55
2016-10-05T03:20:22.651Z,95.46
2016-10-05T03:21:03.179Z,95.75
2016-10-05T03:21:43.722Z,95.75
2016-10-05T03:22:24.205Z,95.46
2016-10-05T03:23:04.750Z,95.27
2016-10-05T03:23:45.278Z,95.36
2016-10-05T03:24:25.847Z,95.46
2016-10-05T03:25:06.364Z,95.75
2016-10-05T03:25:46.870Z,95.55
2016-10-05T03:26:27.400Z,95.55
2016-10-05T03:27:07.932Z,95.94
2016-10-05T03:27:48.468Z,96.22
2016-10-05T03:28:28.992Z,96.03
2016-10-05T03:29:09.512Z,95.55
2016-10-05T03:29:50.057Z,96.31
2016-10-05T03:30:30.616Z,95.94
2016-10-05T03:31:11.130Z,96.31
2016-10-05T03:31:51.658Z,96.12
2016-10-05T03:32:32.180Z,96.31
2016-10-05T03:33:12.673Z,96.12
2016-10-05T03:33:53.156Z,96.12
2016-10-05T03:34:33.672Z,96.03
2016-10-05T03:35:14.152Z,96.31
2016-10-05T03:35:54.693Z,96.03
2016-10-05T03:36:35.191Z,95.75
2016-10-05T03:37:15.679Z,95.27
2016-10-05T03:37:56.192Z,95.36
2016-10-05T03:38:36.737Z,96.41
2016-10-05T03:39:17.235Z,96.69
2016-10-05T03:39:57.727Z,96.69
2016-10-05T03:40:38.258Z,96.69
2016-10-05T03:41:18.752Z,96.5
2016-10-05T03:41:59.244Z,96.31
2016-10-05T03:42:39.818Z,96.41
2016-10-05T03:43:20.328Z,96.5
2016-10-05T03:44:00.786Z,96.36
2016-10-05T03:44:41.317Z,96.36
2016-10-05T03:45:21.844Z,96.31
2016-10-05T03:46:02.392Z,96.26
2016-10-05T03:46:42.881Z,96.22
2016-10-05T03:47:23.425Z,96.26
2016-10-05T03:48:03.959Z,96.45
2016-10-05T03:48:44.451Z,96.41
2016-10-05T03:49:24.992Z,96.45
2016-10-05T03:50:05.511Z,95.7
2016-10-05T03:50:46.021Z,95.51
2016-10-05T03:51:26.569Z,95.6
2016-10-05T03:52:07.104Z,96.41
2016-10-05T03:52:47.647Z,95.41
2016-10-05T03:53:28.178Z,96.08
2016-10-05T03:54:08.727Z,96.64
2016-10-05T03:54:49.274Z,96.69
2016-10-05T03:55:29.818Z,95.7
2016-10-05T03:56:10.345Z,96.17
2016-10-05T03:56:50.888Z,95.98
2016-10-05T03:57:31.453Z,96.17
2016-10-05T03:58:11.955Z,96.08
2016-10-05T03:58:52.542Z,96.36
2016-10-05T03:59:33.191Z,95.89
2016-10-05T04:00:13.846Z,96.26
2016-10-05T04:00:54.598Z,96.45
2016-10-05T04:01:35.128Z,96.64
2016-10-05T04:02:15.628Z,96.93
2016-10-05T04:02:56.131Z,96.36
2016-10-05T04:03:36.657Z,96.55
2016-10-05T04:04:17.175Z,96.17
2016-10-05T04:04:57.665Z,96.83
2016-10-05T04:05:38.161Z,96.64
2016-10-05T04:06:18.665Z,96.64
2016-10-05T04:06:59.159Z,96.55
2016-10-05T04:07:39.658Z,96.74
2016-10-05T04:08:20.149Z,96.64
2016-10-05T04:09:00.667Z,96.26
2016-10-05T04:09:41.195Z,96.36
2016-10-05T04:10:21.725Z,96.64
2016-10-05T04:11:02.281Z,96.45
2016-10-05T04:11:42.781Z,96.64
2016-10-05T04:12:23.285Z,96.26
2016-10-05T04:13:03.806Z,96.93
2016-10-05T04:13:44.330Z,97.31
2016-10-05T04:14:24.836Z,96.36
2016-10-05T04:15:05.301Z,96.45
2016-10-05T04:15:45.829Z,96.26
2016-10-05T04:16:26.377Z,96.26
2016-10-05T04:17:06.902Z,96.26
2016-10-05T04:17:47.444Z,96.93
2016-10-05T04:18:27.952Z,96.83
2016-10-05T04:19:08.479Z,97.02
2016-10-05T04:19:48.995Z,96.93
2016-10-05T04:20:29.547Z,96.83
2016-10-05T04:21:10.048Z,97.02
2016-10-05T04:21:50.579Z,96.83
2016-10-05T04:22:31.115Z,96.64
2016-10-05T04:23:11.653Z,96.55
2016-10-05T04:23:52.226Z,96.74
2016-10-05T04:24:32.763Z,96.83
2016-10-05T04:25:13.327Z,97.02
2016-10-05T04:25:53.866Z,97.02
2016-10-05T04:26:34.416Z,97.12
2016-10-05T04:27:14.958Z,97.12
2016-10-05T04:27:55.495Z,97.12
2016-10-05T04:28:36.021Z,97.12
2016-10-05T04:29:16.539Z,96.83
2016-10-05T04:29:57.051Z,97.02
2016-10-05T04:30:37.568Z,97.02
2016-10-05T04:31:18.090Z,97.12
2016-10-05T04:31:58.632Z,97.02
2016-10-05T04:32:39.162Z,96.93
2016-10-05T04:33:19.685Z,97.5
2016-10-05T04:34:00.195Z,97.5
2016-10-05T04:34:40.716Z,97.5
2016-10-05T04:35:21.241Z,97.41
2016-10-05T04:36:01.756Z,96.74
2016-10-05T04:36:42.293Z,96.64
2016-10-05T04:37:22.816Z,96.64
2016-10-05T04:38:03.336Z,97.41
2016-10-05T04:38:43.873Z,97.5
2016-10-05T04:39:24.418Z,97.5
2016-10-05T04:40:04.946Z,97.41
2016-10-05T04:40:45.461Z,96.64
2016-10-05T04:41:25.970Z,96.93
2016-10-05T04:42:06.505Z,96.88
2016-10-05T04:42:47.044Z,96.79
2016-10-05T04:43:27.550Z,96.88
2016-10-05T04:44:08.091Z,96.98
2016-10-05T04:44:48.630Z,96.79
2016-10-05T04:45:29.173Z,97.07
2016-10-05T04:46:09.693Z,96.79
2016-10-05T04:46:50.255Z,97.07
2016-10-05T04:47:30.749Z,96.69
2016-10-05T04:48:11.296Z,96.69
2016-10-05T04:48:51.831Z,96.69
2016-10-05T04:49:32.355Z,96.5
2016-10-05T04:50:12.890Z,96.69
2016-10-05T04:50:53.428Z,95.84
2016-10-05T04:51:33.975Z,96.12
2016-10-05T04:52:14.510Z,96.41
2016-10-05T04:52:55.049Z,96.31
2016-10-05T04:53:35.566Z,96.5
2016-10-05T04:54:16.107Z,96.41
2016-10-05T04:54:56.626Z,95.17
2016-10-05T04:55:37.150Z,96.12
2016-10-05T04:56:17.757Z,95.27
2016-10-05T04:56:58.293Z,95.55
2016-10-05T04:57:38.848Z,95.65
2016-10-05T04:58:19.376Z,95.75
2016-10-05T04:58:59.890Z,95.84
2016-10-05T04:59:40.396Z,95.46
2016-10-05T05:00:20.926Z,95.46
2016-10-05T05:01:01.451Z,95.65
2016-10-05T05:01:41.968Z,94.89
2016-10-05T05:02:22.553Z,95.17
2016-10-05T05:03:03.022Z,94.98
2016-10-05T05:03:43.558Z,95.17
2016-10-05T05:04:24.096Z,95.08
2016-10-05T05:05:04.645Z,95.08
2016-10-05T05:05:45.193Z,95.17
2016-10-05T05:06:25.748Z,95.46
2016-10-05T05:07:06.277Z,95.17
2016-10-05T05:07:46.838Z,94.98
2016-10-05T05:08:27.363Z,95.75
2016-10-05T05:09:07.869Z,95.84
2016-10-05T05:09:48.437Z,95.55
2016-10-05T05:10:28.960Z,95.55
2016-10-05T05:11:09.493Z,95.55
2016-10-05T05:11:50.013Z,95.75
2016-10-05T05:12:30.550Z,95.65
2016-10-05T05:13:11.090Z,95.36
2016-10-05T05:13:51.631Z,95.75
2016-10-05T05:14:32.221Z,95.46
2016-10-05T05:15:12.760Z,95.65
2016-10-05T05:15:53.304Z,95.46
2016-10-05T05:16:33.823Z,95.65
2016-10-05T05:17:14.420Z,95.94
2016-10-05T05:17:55.009Z,95.46
2016-10-05T05:18:35.537Z,95.36
2016-10-05T05:19:16.079Z,95.46
2016-10-05T05:19:56.606Z,95.46
2016-10-05T05:20:37.129Z,95.65
2016-10-05T05:21:17.660Z,95.75
2016-10-05T05:21:58.212Z,95.75
2016-10-05T05:22:38.743Z,95.94
2016-10-05T05:23:19.286Z,95.65
2016-10-05T05:23:59.838Z,95.36
2016-10-05T05:24:40.324Z,95.75
2016-10-05T05:25:20.844Z,95.75
2016-10-05T05:26:01.379Z,95.46
2016-10-05T05:26:41.929Z,95.75
2016-10-05T05:27:22.456Z,95.65
2016-10-05T05:28:03.083Z,95.65
2016-10-05T05:28:43.589Z,95.65
2016-10-05T05:29:24.126Z,94.89
2016-10-05T05:30:04.603Z,95.36
2016-10-05T05:30:45.188Z,95.46
2016-10-05T05:31:25.731Z,94.89
2016-10-05T05:32:06.306Z,94.89
2016-10-05T05:32:46.839Z,95.17
2016-10-05T05:33:27.377Z,95.17
2016-10-05T05:34:07.919Z,94.89
2016-10-05T05:34:48.428Z,94.7
2016-10-05T05:35:28.939Z,95.27
2016-10-05T05:36:09.459Z,94.32
2016-10-05T05:36:49.984Z,94.6
2016-10-05T05:37:30.513Z,95.08
2016-10-05T05:38:11.052Z,94.51
2016-10-05T05:38:51.579Z,94.6
2016-10-05T05:39:32.110Z,94.23
2016-10-05T05:40:12.640Z,94.42
2016-10-05T05:40:53.162Z,94.32
2016-10-05T05:41:33.672Z,94.6
2016-10-05T05:42:14.217Z,94.98
2016-10-05T05:42:55.181Z,94.89
2016-10-05T05:43:35.667Z,94.6
2016-10-05T05:44:16.418Z,94.42
2016-10-05T05:44:56.912Z,94.32
2016-10-05T05:45:39.448Z,94.42
2016-10-05T05:46:20.059Z,94.23
2016-10-05T05:47:00.578Z,94.23
2016-10-05T05:47:41.189Z,94.32
2016-10-05T05:48:21.908Z,94.6
2016-10-05T05:49:02.516Z,94.51
2016-10-05T05:49:43.537Z,94.6
2016-10-05T05:50:24.049Z,94.6
2016-10-05T05:51:04.592Z,94.6
2016-10-05T05:51:45.133Z,94.51
2016-10-05T05:52:25.663Z,94.51
2016-10-05T05:53:06.187Z,94.6
2016-10-05T05:53:46.729Z,94.7
2016-10-05T05:54:27.252Z,94.7
2016-10-05T05:55:07.803Z,94.23
2016-10-05T05:55:48.345Z,94.03
2016-10-05T05:56:28.882Z,94.03
2016-10-05T05:57:09.437Z,94.03
2016-10-05T05:57:49.983Z,94.13
2016-10-05T05:58:30.507Z,94.6
2016-10-05T05:59:11.043Z,94.89
2016-10-05T05:59:51.587Z,94.32
2016-10-05T06:00:32.111Z,94.32
2016-10-05T06:01:12.670Z,94.32
2016-10-05T06:01:53.201Z,94.42
2016-10-05T06:02:33.730Z,94.6
2016-10-05T06:03:14.245Z,94.32
2016-10-05T06:03:54.782Z,94.32
2016-10-05T06:04:35.306Z,94.32
2016-10-05T06:05:15.837Z,94.32
2016-10-05T06:05:56.379Z,94.32
2016-10-05T06:06:36.890Z,94.32
2016-10-05T06:07:17.428Z,94.32
2016-10-05T06:07:57.947Z,94.13
2016-10-05T06:08:38.481Z,94.03
2016-10-05T06:09:19.004Z,94.42
2016-10-05T06:09:59.528Z,94.6
2016-10-05T06:10:40.058Z,94.42
2016-10-05T06:11:20.580Z,94.51
2016-10-05T06:12:01.116Z,94.42
2016-10-05T06:12:41.629Z,94.13
2016-10-05T06:13:22.163Z,94.32
2016-10-05T06:14:02.740Z,94.03
2016-10-05T06:14:43.262Z,94.51
2016-10-05T06:15:23.801Z,94.79
2016-10-05T06:16:04.351Z,94.6
2016-10-05T06:16:44.898Z,94.6
2016-10-05T06:17:25.419Z,94.42
2016-10-05T06:18:05.952Z,94.6
2016-10-05T06:18:46.480Z,94.51
2016-10-05T06:19:27.022Z,94.03
2016-10-05T06:20:07.562Z,94.7
2016-10-05T06:20:48.101Z,94.51
2016-10-05T06:21:28.634Z,94.42
2016-10-05T06:22:09.164Z,94.6
2016-10-05T06:22:49.739Z,94.42
2016-10-05T06:23:30.278Z,94.42
2016-10-05T06:24:10.808Z,94.23
2016-10-05T06:24:51.345Z,93.94
2016-10-05T06:25:31.867Z,94.42
2016-10-05T06:26:12.394Z,94.13
2016-10-05T06:26:52.913Z,94.23
2016-10-05T06:27:33.456Z,93.84
2016-10-05T06:28:13.973Z,94.03
2016-10-05T06:28:54.478Z,94.79
2016-10-05T06:29:35.008Z,94.6
2016-10-05T06:30:15.551Z,94.32
2016-10-05T06:30:56.072Z,94.23
2016-10-05T06:31:36.606Z,94.32
2016-10-05T06:32:17.122Z,94.42
2016-10-05T06:32:57.642Z,94.32
2016-10-05T06:33:38.178Z,94.13
2016-10-05T06:34:18.723Z,94.03
2016-10-05T06:34:59.248Z,94.51
2016-10-05T06:35:39.763Z,94.51
2016-10-05T06:36:20.284Z,94.23
2016-10-05T06:37:00.808Z,94.42
2016-10-05T06:37:41.348Z,94.98
2016-10-05T06:38:21.869Z,94.6
2016-10-05T06:39:02.395Z,95.08
2016-10-05T06:39:42.915Z,94.6
2016-10-05T06:40:23.449Z,94.89
2016-10-05T06:41:03.970Z,94.98
2016-10-05T06:41:44.479Z,94.42
2016-10-05T06:42:25.002Z,94.13
2016-10-05T06:43:05.542Z,94.03
2016-10-05T06:43:46.093Z,94.42
2016-10-05T06:44:26.678Z,94.6
2016-10-05T06:45:07.216Z,94.42
2016-10-05T06:45:47.753Z,94.42
2016-10-05T06:46:28.274Z,94.23
2016-10-05T06:47:08.813Z,94.23
2016-10-05T06:47:49.366Z,94.6
2016-10-05T06:48:29.908Z,93.46
2016-10-05T06:49:10.464Z,93.56
2016-10-05T06:49:50.982Z,93.56
2016-10-05T06:50:31.501Z,93.75
2016-10-05T06:51:12.014Z,93.46
2016-10-05T06:51:52.533Z,93.94
2016-10-05T06:52:33.065Z,93.94
2016-10-05T06:53:13.589Z,93.94
2016-10-05T06:53:54.087Z,93.75
2016-10-05T06:54:34.605Z,93.46
2016-10-05T06:55:15.160Z,93.65
2016-10-05T06:55:55.703Z,93.75
2016-10-05T06:56:36.216Z,93.46
2016-10-05T06:57:16.767Z,93.65
2016-10-05T06:57:57.281Z,93.37
2016-10-05T06:58:37.821Z,93.27
2016-10-05T06:59:18.336Z,93.18
2016-10-05T06:59:58.857Z,93.18
2016-10-05T07:00:39.400Z,93.18
2016-10-05T07:01:19.939Z,92.99
2016-10-05T07:02:00.462Z,92.99
2016-10-05T07:02:41.008Z,93.18
2016-10-05T07:03:21.518Z,92.99
2016-10-05T07:04:02.045Z,93.46
2016-10-05T07:04:42.587Z,92.61
2016-10-05T07:05:23.091Z,92.99
2016-10-05T07:06:03.661Z,93.08
2016-10-05T07:06:44.164Z,92.99
2016-10-05T07:07:24.692Z,93.18
2016-10-05T07:08:05.234Z,93.08
2016-10-05T07:08:45.737Z,93.08
2016-10-05T07:09:26.274Z,93.18
2016-10-05T07:10:06.792Z,92.51
2016-10-05T07:10:47.371Z,92.37
2016-10-05T07:11:27.876Z,92.71
2016-10-05T07:12:08.385Z,92.37
2016-10-05T07:12:48.946Z,92.56
2016-10-05T07:13:29.435Z,92.56
2016-10-05T07:14:09.976Z,92.66
2016-10-05T07:14:50.491Z,92.46
2016-10-05T07:15:31.044Z,92.46
2016-10-05T07:16:11.556Z,92.75
2016-10-05T07:16:52.084Z,92.94
2016-10-05T07:17:32.611Z,92.56
2016-10-05T07:18:13.133Z,92.18
2016-10-05T07:18:53.642Z,92.75
2016-10-05T07:19:34.174Z,92.27
2016-10-05T07:20:14.696Z,92.27
2016-10-05T07:20:55.221Z,92.08
2016-10-05T07:21:35.730Z,92.18
2016-10-05T07:22:16.266Z,92.27
2016-10-05T07:22:56.792Z,92.37
2016-10-05T07:23:37.311Z,92.18
2016-10-05T07:24:17.833Z,91.71
2016-10-05T07:24:58.370Z,91.89
2016-10-05T07:25:38.916Z,92.08
2016-10-05T07:26:19.467Z,92.37
2016-10-05T07:26:59.973Z,92.18
2016-10-05T07:27:40.499Z,91.71
2016-10-05T07:28:21.027Z,91.33
2016-10-05T07:29:01.558Z,91.23
2016-10-05T07:29:42.119Z,91.13
2016-10-05T07:30:22.655Z,90.89
2016-10-05T07:31:03.193Z,90.42
2016-10-05T07:31:43.701Z,89.85
2016-10-05T07:32:24.279Z,89.56
2016-10-05T07:33:04.802Z,89.94
2016-10-05T07:33:45.335Z,89.75
2016-10-05T07:34:25.870Z,89.47
2016-10-05T07:35:06.421Z,89.75
2016-10-05T07:35:46.948Z,89.28
2016-10-05T07:36:27.496Z,89.66
2016-10-05T07:37:08.014Z,89
2016-10-05T07:37:48.587Z,88.71
2016-10-05T07:38:29.112Z,88.9
2016-10-05T07:39:09.671Z,89.09
2016-10-05T07:39:50.231Z,88.9
2016-10-05T07:40:30.759Z,89
2016-10-05T07:41:11.288Z,88.23
2016-10-05T07:41:51.806Z,88.71
2016-10-05T07:42:32.351Z,87.47
2016-10-05T07:43:12.900Z,87.57
2016-10-05T07:43:53.423Z,87.13
2016-10-05T07:44:33.960Z,86.94
2016-10-05T07:45:14.483Z,87.13
2016-10-05T07:45:54.991Z,86.85
2016-10-05T07:46:35.533Z,86.76
2016-10-05T07:47:16.071Z,86.76
2016-10-05T07:47:56.626Z,86.47
2016-10-05T07:48:37.142Z,86.18
2016-10-05T07:49:17.663Z,86.76
2016-10-05T07:49:58.179Z,86.66
2016-10-05T07:50:38.712Z,86.38
2016-10-05T07:51:19.252Z,86.47
2016-10-05T07:51:59.778Z,86.47
2016-10-05T07:52:40.316Z,85.8
2016-10-05T07:53:20.847Z,85.9
2016-10-05T07:54:01.369Z,85.9
2016-10-05T07:54:41.904Z,85.42
2016-10-05T07:55:22.419Z,85.61
2016-10-05T07:56:02.971Z,84.95
2016-10-05T07:56:43.493Z,84.85
2016-10-05T07:57:24.022Z,84.76
2016-10-05T07:58:04.578Z,84.95
2016-10-05T07:58:45.121Z,84.56
2016-10-05T07:59:25.650Z,84.76
2016-10-05T08:00:06.169Z,83.71
2016-10-05T08:00:46.695Z,83.47
2016-10-05T08:01:27.262Z,82.99
2016-10-05T08:02:07.798Z,83.09
2016-10-05T08:02:48.333Z,82.99
2016-10-05T08:03:28.888Z,82.8
2016-10-05T08:04:09.427Z,82.8
2016-10-05T08:04:49.989Z,83.28
2016-10-05T08:05:30.526Z,83.09
2016-10-05T08:06:11.065Z,82.99
2016-10-05T08:06:51.605Z,83.47
2016-10-05T08:07:32.128Z,83.47
2016-10-05T08:08:12.657Z,82.9
2016-10-05T08:08:53.205Z,82.61
2016-10-05T08:09:33.745Z,82.9
2016-10-05T08:10:14.282Z,82.51
2016-10-05T08:10:54.821Z,82.04
2016-10-05T08:11:35.342Z,81.76
2016-10-05T08:12:15.882Z,81.18
2016-10-05T08:12:56.447Z,81.18
2016-10-05T08:13:36.979Z,81.18
2016-10-05T08:14:17.525Z,81.09
2016-10-05T08:14:58.073Z,81.13
2016-10-05T08:15:40.558Z,80.71
2016-10-05T08:16:21.096Z,80.71
2016-10-05T08:17:01.654Z,80.52
2016-10-05T08:17:42.188Z,79.8
2016-10-05T08:18:22.729Z,79.7
2016-10-05T08:19:03.285Z,79.7
2016-10-05T08:19:43.823Z,79.7
2016-10-05T08:20:24.354Z,78.85
2016-10-05T08:21:04.884Z,78.37
2016-10-05T08:21:45.427Z,78.75
2016-10-05T08:22:25.969Z,78.27
2016-10-05T08:23:06.503Z,77.98
2016-10-05T08:23:47.047Z,77.42
2016-10-05T08:24:27.588Z,76.94
2016-10-05T08:25:08.103Z,77.03
2016-10-05T08:25:48.638Z,76.84
2016-10-05T08:26:29.152Z,76.56
2016-10-05T08:27:09.693Z,76.37
2016-10-05T08:27:50.200Z,76.65
2016-10-05T08:28:30.743Z,75.99
2016-10-05T08:29:11.276Z,76.12
2016-10-05T08:29:51.824Z,76.21
2016-10-05T08:30:32.376Z,76.21
2016-10-05T08:31:12.914Z,76.31
2016-10-05T08:31:53.452Z,75.64
2016-10-05T08:32:33.985Z,75.36
2016-10-05T08:33:14.550Z,75.74
2016-10-05T08:33:55.103Z,75.64
2016-10-05T08:34:35.651Z,75.36
2016-10-05T08:35:16.186Z,74.88
2016-10-05T08:35:56.733Z,74.98
2016-10-05T08:36:37.268Z,74.79
2016-10-05T08:37:17.785Z,74.6
2016-10-05T08:37:58.324Z,74.5
2016-10-05T08:38:38.897Z,74.02
2016-10-05T08:39:19.410Z,73.96
2016-10-05T08:39:59.979Z,73.87
2016-10-05T08:40:40.509Z,73.01
2016-10-05T08:41:21.061Z,72.53
2016-10-05T08:42:01.598Z,72.63
2016-10-05T08:42:42.136Z,71.39
2016-10-05T08:43:22.721Z,71.11
2016-10-05T08:44:03.263Z,70.47
2016-10-05T08:44:43.817Z,70.28
2016-10-05T08:45:24.350Z,70.19
2016-10-05T08:46:04.909Z,70.19
2016-10-05T08:46:45.429Z,70.28
2016-10-05T08:47:25.965Z,69.71
2016-10-05T08:48:06.529Z,69.33
2016-10-05T08:48:47.058Z,69.17
2016-10-05T08:49:27.586Z,68.7
2016-10-05T08:50:08.119Z,68.03
2016-10-05T08:50:48.657Z,68.06
2016-10-05T08:51:29.242Z,67.4
2016-10-05T08:52:09.788Z,67.01
2016-10-05T08:52:50.332Z,66.06
2016-10-05T08:53:30.847Z,65.77
2016-10-05T08:54:11.387Z,65.33
2016-10-05T08:54:51.930Z,65.52
2016-10-05T08:55:32.460Z,64.85
2016-10-05T08:56:13.000Z,63.93
2016-10-05T08:56:53.567Z,63.35
2016-10-05T08:57:34.092Z,62.11
2016-10-05T08:58:14.677Z,62.4
2016-10-05T08:58:55.171Z,61.38
2016-10-05T08:59:35.748Z,60.8
2016-10-05T09:00:16.273Z,61.09
2016-10-05T09:00:56.808Z,61.38
2016-10-05T09:01:37.367Z,60.33
2016-10-05T09:02:17.952Z,58.73
2016-10-05T09:02:58.508Z,58.54
2016-10-05T09:03:39.030Z,58.15
2016-10-05T09:04:19.585Z,58.06
2016-10-05T09:05:00.162Z,57.8
2016-10-05T09:05:40.703Z,57.7
2016-10-05T09:06:21.241Z,57.35
2016-10-05T09:07:01.794Z,56.68
2016-10-05T09:07:42.324Z,56.1
2016-10-05T09:08:22.878Z,55.63
2016-10-05T09:09:03.398Z,55.08
2016-10-05T09:09:43.956Z,55.27
2016-10-05T09:10:24.477Z,54.79
2016-10-05T09:11:05.023Z,54.7
2016-10-05T09:11:45.552Z,53.93
2016-10-05T09:12:26.072Z,53.83
2016-10-05T09:13:06.612Z,53.48
2016-10-05T09:13:47.177Z,53.09
2016-10-05T09:14:27.791Z,52.42
2016-10-05T09:15:08.349Z,52.04
2016-10-05T09:15:48.917Z,52.16
2016-10-05T09:16:29.442Z,51.87
2016-10-05T09:17:10.050Z,51.4
2016-10-05T09:17:50.619Z,50.73
2016-10-05T09:18:31.162Z,50.63
2016-10-05T09:19:11.699Z,50.15
2016-10-05T09:19:52.239Z,50.05
2016-10-05T09:20:32.785Z,49.16
2016-10-05T09:21:13.325Z,48.97
2016-10-05T09:21:53.877Z,49.26
2016-10-05T09:22:34.401Z,49.29
2016-10-05T09:23:14.930Z,48.52
2016-10-05T09:23:55.476Z,47.92
2016-10-05T09:24:36.036Z,48.4
2016-10-05T09:25:16.565Z,48.78
2016-10-05T09:25:57.117Z,49.16
2016-10-05T09:26:37.684Z,48.78
2016-10-05T09:27:18.237Z,48.57
2016-10-05T09:27:58.768Z,48.57
2016-10-05T09:28:39.306Z,49.52
2016-10-05T09:29:19.842Z,49.71
2016-10-05T09:30:00.394Z,50.48
2016-10-05T09:30:41.001Z,50.77
2016-10-05T09:31:21.525Z,51.44